sensor_id;sensor_type;location;lat;lon;timestamp;P1;durP1;ratioP1;P2;durP2;ratioP2
25015;SDS011;13029;46.286;7.488;2023-01-29T00:00:35;26.40;;;12.82;;
25015;SDS011;13029;46.286;7.488;2023-01-29T00:03:00;23.75;;;12.90;;
25015;SDS011;13029;46.286;7.488;2023-01-29T00:05:26;25.73;;;12.95;;
25015;SDS011;13029;46.286;7.488;2023-01-29T00:07:51;25.55;;;12.63;;
25015;SDS011;13029;46.286;7.488;2023-01-29T00:10:16;25.27;;;13.10;;
25015;SDS011;13029;46.286;7.488;2023-01-29T00:12:42;26.00;;;13.25;;
25015;SDS011;13029;46.286;7.488;2023-01-29T00:15:07;28.42;;;14.43;;
25015;SDS011;13029;46.286;7.488;2023-01-29T00:17:33;25.30;;;12.80;;
25015;SDS011;13029;46.286;7.488;2023-01-29T00:19:58;24.98;;;13.10;;
25015;SDS011;13029;46.286;7.488;2023-01-29T00:22:24;26.02;;;13.30;;
25015;SDS011;13029;46.286;7.488;2023-01-29T00:24:49;28.58;;;13.57;;
25015;SDS011;13029;46.286;7.488;2023-01-29T00:27:14;27.27;;;13.40;;
25015;SDS011;13029;46.286;7.488;2023-01-29T00:29:40;27.15;;;13.65;;
25015;SDS011;13029;46.286;7.488;2023-01-29T00:32:05;26.35;;;13.65;;
25015;SDS011;13029;46.286;7.488;2023-01-29T00:34:31;26.05;;;13.43;;
25015;SDS011;13029;46.286;7.488;2023-01-29T00:36:56;27.17;;;13.68;;
25015;SDS011;13029;46.286;7.488;2023-01-29T00:39:28;24.23;;;13.55;;
25015;SDS011;13029;46.286;7.488;2023-01-29T00:42:02;29.27;;;13.18;;
25015;SDS011;13029;46.286;7.488;2023-01-29T00:44:46;24.98;;;12.80;;
25015;SDS011;13029;46.286;7.488;2023-01-29T00:47:23;24.40;;;13.00;;
25015;SDS011;13029;46.286;7.488;2023-01-29T00:49:55;27.70;;;13.38;;
25015;SDS011;13029;46.286;7.488;2023-01-29T00:52:20;26.80;;;13.65;;
25015;SDS011;13029;46.286;7.488;2023-01-29T00:54:49;25.73;;;14.02;;
25015;SDS011;13029;46.286;7.488;2023-01-29T00:57:15;24.65;;;13.75;;
25015;SDS011;13029;46.286;7.488;2023-01-29T00:59:40;32.65;;;15.48;;
25015;SDS011;13029;46.286;7.488;2023-01-29T01:02:05;29.05;;;13.35;;
25015;SDS011;13029;46.286;7.488;2023-01-29T01:04:49;22.25;;;12.40;;
25015;SDS011;13029;46.286;7.488;2023-01-29T01:07:15;23.80;;;12.20;;
25015;SDS011;13029;46.286;7.488;2023-01-29T01:09:40;26.30;;;13.90;;
25015;SDS011;13029;46.286;7.488;2023-01-29T01:12:24;25.98;;;13.18;;
25015;SDS011;13029;46.286;7.488;2023-01-29T01:14:49;24.83;;;12.63;;
25015;SDS011;13029;46.286;7.488;2023-01-29T01:17:14;27.85;;;14.38;;
25015;SDS011;13029;46.286;7.488;2023-01-29T01:19:40;27.45;;;13.18;;
25015;SDS011;13029;46.286;7.488;2023-01-29T01:22:05;25.80;;;13.02;;
25015;SDS011;13029;46.286;7.488;2023-01-29T01:24:30;26.48;;;13.15;;
25015;SDS011;13029;46.286;7.488;2023-01-29T01:26:56;28.05;;;14.60;;
25015;SDS011;13029;46.286;7.488;2023-01-29T01:29:21;26.58;;;14.55;;
25015;SDS011;13029;46.286;7.488;2023-01-29T01:31:47;26.95;;;13.73;;
25015;SDS011;13029;46.286;7.488;2023-01-29T01:34:12;25.75;;;13.85;;
25015;SDS011;13029;46.286;7.488;2023-01-29T01:36:37;25.55;;;13.60;;
25015;SDS011;13029;46.286;7.488;2023-01-29T01:39:03;24.30;;;13.50;;
25015;SDS011;13029;46.286;7.488;2023-01-29T01:41:28;25.05;;;13.15;;
25015;SDS011;13029;46.286;7.488;2023-01-29T01:43:55;24.90;;;13.30;;
25015;SDS011;13029;46.286;7.488;2023-01-29T01:46:28;25.25;;;12.23;;
25015;SDS011;13029;46.286;7.488;2023-01-29T01:49:28;24.13;;;12.25;;
25015;SDS011;13029;46.286;7.488;2023-01-29T01:51:48;24.80;;;12.73;;
25015;SDS011;13029;46.286;7.488;2023-01-29T01:54:19;26.65;;;13.70;;
25015;SDS011;13029;46.286;7.488;2023-01-29T01:56:49;26.23;;;13.07;;
25015;SDS011;13029;46.286;7.488;2023-01-29T01:59:19;23.98;;;13.10;;
25015;SDS011;13029;46.286;7.488;2023-01-29T02:01:46;26.48;;;12.98;;
25015;SDS011;13029;46.286;7.488;2023-01-29T02:07:01;27.33;;;13.13;;
25015;SDS011;13029;46.286;7.488;2023-01-29T02:12:33;26.15;;;13.90;;
25015;SDS011;13029;46.286;7.488;2023-01-29T02:14:58;22.45;;;12.55;;
25015;SDS011;13029;46.286;7.488;2023-01-29T02:17:23;26.35;;;13.07;;
25015;SDS011;13029;46.286;7.488;2023-01-29T02:19:55;24.45;;;12.93;;
25015;SDS011;13029;46.286;7.488;2023-01-29T02:31:11;28.17;;;12.70;;
25015;SDS011;13029;46.286;7.488;2023-01-29T02:33:47;28.67;;;14.00;;
25015;SDS011;13029;46.286;7.488;2023-01-29T02:36:29;25.20;;;12.52;;
25015;SDS011;13029;46.286;7.488;2023-01-29T02:39:39;23.85;;;13.00;;
25015;SDS011;13029;46.286;7.488;2023-01-29T02:41:54;24.00;;;12.05;;
25015;SDS011;13029;46.286;7.488;2023-01-29T02:44:37;26.00;;;12.55;;
25015;SDS011;13029;46.286;7.488;2023-01-29T02:47:27;26.05;;;12.18;;
25015;SDS011;13029;46.286;7.488;2023-01-29T02:49:59;27.70;;;13.07;;
25015;SDS011;13029;46.286;7.488;2023-01-29T02:52:32;25.67;;;12.55;;
25015;SDS011;13029;46.286;7.488;2023-01-29T02:55:09;24.67;;;13.02;;
25015;SDS011;13029;46.286;7.488;2023-01-29T02:57:41;22.90;;;11.85;;
25015;SDS011;13029;46.286;7.488;2023-01-29T03:02:41;24.80;;;12.63;;
25015;SDS011;13029;46.286;7.488;2023-01-29T03:05:14;26.38;;;13.65;;
25015;SDS011;13029;46.286;7.488;2023-01-29T03:07:42;26.23;;;13.50;;
25015;SDS011;13029;46.286;7.488;2023-01-29T03:10:14;21.38;;;11.98;;
25015;SDS011;13029;46.286;7.488;2023-01-29T03:12:41;26.83;;;13.80;;
25015;SDS011;13029;46.286;7.488;2023-01-29T03:15:09;24.60;;;13.18;;
25015;SDS011;13029;46.286;7.488;2023-01-29T03:17:49;24.63;;;13.23;;
25015;SDS011;13029;46.286;7.488;2023-01-29T03:20:17;24.48;;;12.48;;
25015;SDS011;13029;46.286;7.488;2023-01-29T03:22:48;25.52;;;13.63;;
25015;SDS011;13029;46.286;7.488;2023-01-29T03:25:16;25.15;;;13.02;;
25015;SDS011;13029;46.286;7.488;2023-01-29T03:28:01;21.92;;;12.10;;
25015;SDS011;13029;46.286;7.488;2023-01-29T03:30:49;23.60;;;12.70;;
25015;SDS011;13029;46.286;7.488;2023-01-29T03:33:38;27.90;;;13.32;;
25015;SDS011;13029;46.286;7.488;2023-01-29T03:36:12;24.90;;;13.00;;
25015;SDS011;13029;46.286;7.488;2023-01-29T03:38:41;24.00;;;12.43;;
25015;SDS011;13029;46.286;7.488;2023-01-29T03:41:13;23.75;;;11.80;;
25015;SDS011;13029;46.286;7.488;2023-01-29T03:43:51;24.35;;;13.02;;
25015;SDS011;13029;46.286;7.488;2023-01-29T03:48:58;26.05;;;12.73;;
25015;SDS011;13029;46.286;7.488;2023-01-29T03:51:29;25.05;;;13.32;;
25015;SDS011;13029;46.286;7.488;2023-01-29T03:54:06;25.85;;;13.07;;
25015;SDS011;13029;46.286;7.488;2023-01-29T04:00:04;27.27;;;12.93;;
25015;SDS011;13029;46.286;7.488;2023-01-29T04:03:19;25.63;;;12.43;;
25015;SDS011;13029;46.286;7.488;2023-01-29T04:05:32;23.42;;;11.80;;
25015;SDS011;13029;46.286;7.488;2023-01-29T04:08:06;24.10;;;11.68;;
25015;SDS011;13029;46.286;7.488;2023-01-29T04:10:35;22.05;;;11.45;;
25015;SDS011;13029;46.286;7.488;2023-01-29T04:13:03;22.52;;;11.65;;
25015;SDS011;13029;46.286;7.488;2023-01-29T04:15:31;22.45;;;12.20;;
25015;SDS011;13029;46.286;7.488;2023-01-29T04:18:00;21.92;;;12.25;;
25015;SDS011;13029;46.286;7.488;2023-01-29T04:20:26;25.98;;;12.73;;
25015;SDS011;13029;46.286;7.488;2023-01-29T04:22:51;29.00;;;13.98;;
25015;SDS011;13029;46.286;7.488;2023-01-29T04:25:18;23.65;;;12.20;;
25015;SDS011;13029;46.286;7.488;2023-01-29T04:35:30;25.60;;;12.95;;
25015;SDS011;13029;46.286;7.488;2023-01-29T04:38:08;25.08;;;12.38;;
25015;SDS011;13029;46.286;7.488;2023-01-29T04:40:48;26.23;;;12.73;;
25015;SDS011;13029;46.286;7.488;2023-01-29T04:46:02;27.40;;;13.70;;
25015;SDS011;13029;46.286;7.488;2023-01-29T04:51:18;28.30;;;13.82;;
25015;SDS011;13029;46.286;7.488;2023-01-29T04:59:29;27.95;;;13.23;;
25015;SDS011;13029;46.286;7.488;2023-01-29T05:01:58;28.73;;;13.23;;
25015;SDS011;13029;46.286;7.488;2023-01-29T05:04:25;24.05;;;12.65;;
25015;SDS011;13029;46.286;7.488;2023-01-29T05:06:52;25.98;;;13.00;;
25015;SDS011;13029;46.286;7.488;2023-01-29T05:09:18;26.02;;;12.98;;
25015;SDS011;13029;46.286;7.488;2023-01-29T05:11:44;25.63;;;13.38;;
25015;SDS011;13029;46.286;7.488;2023-01-29T05:14:10;22.98;;;12.05;;
25015;SDS011;13029;46.286;7.488;2023-01-29T05:16:41;24.83;;;13.25;;
25015;SDS011;13029;46.286;7.488;2023-01-29T05:19:08;22.63;;;12.48;;
25015;SDS011;13029;46.286;7.488;2023-01-29T05:21:36;24.50;;;12.60;;
25015;SDS011;13029;46.286;7.488;2023-01-29T05:24:05;29.33;;;14.13;;
25015;SDS011;13029;46.286;7.488;2023-01-29T05:26:34;23.60;;;12.48;;
25015;SDS011;13029;46.286;7.488;2023-01-29T05:29:19;21.88;;;11.48;;
25015;SDS011;13029;46.286;7.488;2023-01-29T05:31:44;27.25;;;12.32;;
25015;SDS011;13029;46.286;7.488;2023-01-29T05:34:10;22.98;;;11.52;;
25015;SDS011;13029;46.286;7.488;2023-01-29T05:36:35;21.88;;;12.07;;
25015;SDS011;13029;46.286;7.488;2023-01-29T05:39:00;26.08;;;12.43;;
25015;SDS011;13029;46.286;7.488;2023-01-29T05:41:26;24.92;;;12.00;;
25015;SDS011;13029;46.286;7.488;2023-01-29T05:43:51;20.20;;;10.90;;
25015;SDS011;13029;46.286;7.488;2023-01-29T05:46:16;23.02;;;11.02;;
25015;SDS011;13029;46.286;7.488;2023-01-29T05:48:42;23.05;;;11.43;;
25015;SDS011;13029;46.286;7.488;2023-01-29T05:51:08;22.13;;;10.18;;
25015;SDS011;13029;46.286;7.488;2023-01-29T05:53:33;21.55;;;10.90;;
25015;SDS011;13029;46.286;7.488;2023-01-29T05:56:02;26.48;;;12.15;;
25015;SDS011;13029;46.286;7.488;2023-01-29T05:58:29;22.13;;;11.57;;
25015;SDS011;13029;46.286;7.488;2023-01-29T06:00:55;23.05;;;11.55;;
25015;SDS011;13029;46.286;7.488;2023-01-29T06:03:20;23.05;;;11.93;;
25015;SDS011;13029;46.286;7.488;2023-01-29T06:05:45;23.27;;;12.25;;
25015;SDS011;13029;46.286;7.488;2023-01-29T06:08:11;22.48;;;11.88;;
25015;SDS011;13029;46.286;7.488;2023-01-29T06:10:37;26.38;;;12.02;;
25015;SDS011;13029;46.286;7.488;2023-01-29T06:13:02;24.88;;;13.07;;
25015;SDS011;13029;46.286;7.488;2023-01-29T06:15:27;22.65;;;12.05;;
25015;SDS011;13029;46.286;7.488;2023-01-29T06:17:53;26.65;;;12.02;;
25015;SDS011;13029;46.286;7.488;2023-01-29T06:20:18;27.13;;;12.25;;
25015;SDS011;13029;46.286;7.488;2023-01-29T06:22:44;23.45;;;10.82;;
25015;SDS011;13029;46.286;7.488;2023-01-29T06:25:09;24.48;;;12.43;;
25015;SDS011;13029;46.286;7.488;2023-01-29T06:27:34;22.60;;;11.80;;
25015;SDS011;13029;46.286;7.488;2023-01-29T06:30:00;25.10;;;11.43;;
25015;SDS011;13029;46.286;7.488;2023-01-29T06:32:26;23.15;;;11.00;;
25015;SDS011;13029;46.286;7.488;2023-01-29T06:34:51;23.65;;;11.90;;
25015;SDS011;13029;46.286;7.488;2023-01-29T06:37:17;22.30;;;11.40;;
25015;SDS011;13029;46.286;7.488;2023-01-29T06:39:42;22.77;;;11.38;;
25015;SDS011;13029;46.286;7.488;2023-01-29T06:42:08;23.73;;;12.35;;
25015;SDS011;13029;46.286;7.488;2023-01-29T06:44:34;25.60;;;12.20;;
25015;SDS011;13029;46.286;7.488;2023-01-29T06:46:59;24.83;;;12.73;;
25015;SDS011;13029;46.286;7.488;2023-01-29T06:49:24;23.00;;;11.93;;
25015;SDS011;13029;46.286;7.488;2023-01-29T06:51:50;22.77;;;12.70;;
25015;SDS011;13029;46.286;7.488;2023-01-29T06:54:15;30.13;;;14.30;;
25015;SDS011;13029;46.286;7.488;2023-01-29T06:56:40;27.10;;;13.35;;
25015;SDS011;13029;46.286;7.488;2023-01-29T06:59:06;24.38;;;12.70;;
25015;SDS011;13029;46.286;7.488;2023-01-29T07:01:31;25.58;;;11.68;;
25015;SDS011;13029;46.286;7.488;2023-01-29T07:03:56;22.95;;;12.30;;
25015;SDS011;13029;46.286;7.488;2023-01-29T07:06:25;21.38;;;11.25;;
25015;SDS011;13029;46.286;7.488;2023-01-29T07:11:17;22.63;;;12.63;;
25015;SDS011;13029;46.286;7.488;2023-01-29T07:13:42;26.60;;;13.07;;
25015;SDS011;13029;46.286;7.488;2023-01-29T07:16:08;23.58;;;11.50;;
25015;SDS011;13029;46.286;7.488;2023-01-29T07:18:33;29.98;;;12.82;;
25015;SDS011;13029;46.286;7.488;2023-01-29T07:21:02;23.95;;;12.20;;
25015;SDS011;13029;46.286;7.488;2023-01-29T07:23:29;23.50;;;11.23;;
25015;SDS011;13029;46.286;7.488;2023-01-29T07:25:55;25.48;;;12.57;;
25015;SDS011;13029;46.286;7.488;2023-01-29T07:28:20;24.23;;;11.85;;
25015;SDS011;13029;46.286;7.488;2023-01-29T07:30:45;23.50;;;11.88;;
25015;SDS011;13029;46.286;7.488;2023-01-29T07:33:11;27.42;;;13.52;;
25015;SDS011;13029;46.286;7.488;2023-01-29T07:35:37;24.60;;;12.90;;
25015;SDS011;13029;46.286;7.488;2023-01-29T07:38:04;22.67;;;11.80;;
25015;SDS011;13029;46.286;7.488;2023-01-29T07:40:30;22.38;;;12.35;;
25015;SDS011;13029;46.286;7.488;2023-01-29T07:42:59;23.10;;;11.85;;
25015;SDS011;13029;46.286;7.488;2023-01-29T07:45:25;27.15;;;12.38;;
25015;SDS011;13029;46.286;7.488;2023-01-29T07:47:52;25.73;;;11.98;;
25015;SDS011;13029;46.286;7.488;2023-01-29T07:50:18;23.50;;;11.98;;
25015;SDS011;13029;46.286;7.488;2023-01-29T07:52:44;30.02;;;13.38;;
25015;SDS011;13029;46.286;7.488;2023-01-29T07:55:09;25.42;;;13.02;;
25015;SDS011;13029;46.286;7.488;2023-01-29T07:57:34;24.98;;;13.18;;
25015;SDS011;13029;46.286;7.488;2023-01-29T08:00:00;25.75;;;13.07;;
25015;SDS011;13029;46.286;7.488;2023-01-29T08:02:25;25.90;;;13.38;;
25015;SDS011;13029;46.286;7.488;2023-01-29T08:04:50;27.33;;;13.30;;
25015;SDS011;13029;46.286;7.488;2023-01-29T08:07:16;23.33;;;12.57;;
25015;SDS011;13029;46.286;7.488;2023-01-29T08:09:41;26.50;;;13.48;;
25015;SDS011;13029;46.286;7.488;2023-01-29T08:12:06;27.65;;;14.43;;
25015;SDS011;13029;46.286;7.488;2023-01-29T08:14:31;22.10;;;13.48;;
25015;SDS011;13029;46.286;7.488;2023-01-29T08:16:57;25.25;;;13.52;;
25015;SDS011;13029;46.286;7.488;2023-01-29T08:19:22;25.08;;;13.85;;
25015;SDS011;13029;46.286;7.488;2023-01-29T08:21:48;29.15;;;14.45;;
25015;SDS011;13029;46.286;7.488;2023-01-29T08:24:13;28.70;;;14.45;;
25015;SDS011;13029;46.286;7.488;2023-01-29T08:26:38;27.45;;;14.93;;
25015;SDS011;13029;46.286;7.488;2023-01-29T08:29:04;27.95;;;15.52;;
25015;SDS011;13029;46.286;7.488;2023-01-29T08:31:29;28.02;;;14.82;;
25015;SDS011;13029;46.286;7.488;2023-01-29T08:33:54;25.95;;;13.98;;
25015;SDS011;13029;46.286;7.488;2023-01-29T08:36:20;28.83;;;14.65;;
25015;SDS011;13029;46.286;7.488;2023-01-29T08:38:45;26.65;;;14.02;;
25015;SDS011;13029;46.286;7.488;2023-01-29T08:41:10;28.08;;;14.38;;
25015;SDS011;13029;46.286;7.488;2023-01-29T08:43:36;27.00;;;14.13;;
25015;SDS011;13029;46.286;7.488;2023-01-29T08:46:03;29.48;;;14.38;;
25015;SDS011;13029;46.286;7.488;2023-01-29T08:48:29;26.35;;;13.82;;
25015;SDS011;13029;46.286;7.488;2023-01-29T08:50:58;27.30;;;14.32;;
25015;SDS011;13029;46.286;7.488;2023-01-29T08:53:24;23.08;;;13.02;;
25015;SDS011;13029;46.286;7.488;2023-01-29T08:55:49;23.83;;;13.55;;
25015;SDS011;13029;46.286;7.488;2023-01-29T08:58:15;25.33;;;13.68;;
25015;SDS011;13029;46.286;7.488;2023-01-29T09:00:40;26.20;;;13.82;;
25015;SDS011;13029;46.286;7.488;2023-01-29T09:03:06;24.60;;;13.02;;
25015;SDS011;13029;46.286;7.488;2023-01-29T09:05:32;26.65;;;13.57;;
25015;SDS011;13029;46.286;7.488;2023-01-29T09:07:58;24.92;;;13.25;;
25015;SDS011;13029;46.286;7.488;2023-01-29T09:10:24;22.65;;;12.70;;
25015;SDS011;13029;46.286;7.488;2023-01-29T09:12:49;21.08;;;12.13;;
25015;SDS011;13029;46.286;7.488;2023-01-29T09:15:14;23.92;;;13.18;;
25015;SDS011;13029;46.286;7.488;2023-01-29T09:17:39;24.45;;;12.82;;
25015;SDS011;13029;46.286;7.488;2023-01-29T09:20:05;23.52;;;13.63;;
25015;SDS011;13029;46.286;7.488;2023-01-29T09:22:31;29.15;;;14.82;;
25015;SDS011;13029;46.286;7.488;2023-01-29T09:24:57;24.63;;;14.88;;
25015;SDS011;13029;46.286;7.488;2023-01-29T09:27:23;22.83;;;13.77;;
25015;SDS011;13029;46.286;7.488;2023-01-29T09:29:48;27.48;;;14.57;;
25015;SDS011;13029;46.286;7.488;2023-01-29T09:32:14;26.23;;;14.27;;
25015;SDS011;13029;46.286;7.488;2023-01-29T09:34:39;24.73;;;14.50;;
25015;SDS011;13029;46.286;7.488;2023-01-29T09:37:04;27.73;;;14.50;;
25015;SDS011;13029;46.286;7.488;2023-01-29T09:39:30;24.48;;;14.68;;
25015;SDS011;13029;46.286;7.488;2023-01-29T09:42:02;24.23;;;15.77;;
25015;SDS011;13029;46.286;7.488;2023-01-29T09:47:17;24.10;;;14.77;;
25015;SDS011;13029;46.286;7.488;2023-01-29T09:50:06;24.40;;;14.88;;
25015;SDS011;13029;46.286;7.488;2023-01-29T09:52:43;23.63;;;14.82;;
25015;SDS011;13029;46.286;7.488;2023-01-29T09:57:53;24.92;;;14.88;;
25015;SDS011;13029;46.286;7.488;2023-01-29T10:00:24;23.70;;;14.55;;
25015;SDS011;13029;46.286;7.488;2023-01-29T10:17:25;24.30;;;15.48;;
25015;SDS011;13029;46.286;7.488;2023-01-29T10:22:37;23.77;;;14.77;;
25015;SDS011;13029;46.286;7.488;2023-01-29T10:25:10;22.85;;;14.02;;
25015;SDS011;13029;46.286;7.488;2023-01-29T10:27:38;20.77;;;13.77;;
25015;SDS011;13029;46.286;7.488;2023-01-29T10:30:06;20.60;;;14.20;;
25015;SDS011;13029;46.286;7.488;2023-01-29T10:32:33;25.38;;;15.23;;
25015;SDS011;13029;46.286;7.488;2023-01-29T10:35:05;23.65;;;15.57;;
25015;SDS011;13029;46.286;7.488;2023-01-29T10:37:41;24.55;;;14.73;;
25015;SDS011;13029;46.286;7.488;2023-01-29T10:40:31;24.13;;;14.10;;
25015;SDS011;13029;46.286;7.488;2023-01-29T10:43:01;28.13;;;15.27;;
25015;SDS011;13029;46.286;7.488;2023-01-29T10:45:33;24.27;;;15.07;;
25015;SDS011;13029;46.286;7.488;2023-01-29T10:56:00;22.02;;;14.52;;
25015;SDS011;13029;46.286;7.488;2023-01-29T10:58:40;21.77;;;15.23;;
25015;SDS011;13029;46.286;7.488;2023-01-29T11:01:09;25.38;;;15.63;;
25015;SDS011;13029;46.286;7.488;2023-01-29T11:03:35;25.20;;;16.30;;
25015;SDS011;13029;46.286;7.488;2023-01-29T11:08:41;23.70;;;15.02;;
25015;SDS011;13029;46.286;7.488;2023-01-29T11:11:14;22.70;;;14.65;;
25015;SDS011;13029;46.286;7.488;2023-01-29T11:14:03;25.33;;;15.55;;
25015;SDS011;13029;46.286;7.488;2023-01-29T11:16:31;20.55;;;15.07;;
25015;SDS011;13029;46.286;7.488;2023-01-29T11:19:04;23.85;;;15.13;;
25015;SDS011;13029;46.286;7.488;2023-01-29T11:21:29;23.75;;;14.68;;
25015;SDS011;13029;46.286;7.488;2023-01-29T11:24:05;21.10;;;15.15;;
25015;SDS011;13029;46.286;7.488;2023-01-29T11:26:41;27.08;;;15.45;;
25015;SDS011;13029;46.286;7.488;2023-01-29T11:31:52;25.73;;;15.25;;
25015;SDS011;13029;46.286;7.488;2023-01-29T11:34:20;27.15;;;16.30;;
25015;SDS011;13029;46.286;7.488;2023-01-29T11:36:55;26.48;;;16.25;;
25015;SDS011;13029;46.286;7.488;2023-01-29T11:39:22;24.23;;;15.65;;
25015;SDS011;13029;46.286;7.488;2023-01-29T11:41:49;26.20;;;15.80;;
25015;SDS011;13029;46.286;7.488;2023-01-29T11:44:29;25.67;;;17.50;;
25015;SDS011;13029;46.286;7.488;2023-01-29T11:50:23;24.98;;;16.42;;
25015;SDS011;13029;46.286;7.488;2023-01-29T11:55:05;24.20;;;14.68;;
25015;SDS011;13029;46.286;7.488;2023-01-29T11:57:39;25.63;;;16.55;;
25015;SDS011;13029;46.286;7.488;2023-01-29T12:06:00;25.90;;;17.05;;
25015;SDS011;13029;46.286;7.488;2023-01-29T12:08:33;24.48;;;16.40;;
25015;SDS011;13029;46.286;7.488;2023-01-29T12:11:12;22.10;;;15.10;;
25015;SDS011;13029;46.286;7.488;2023-01-29T12:13:40;24.58;;;15.50;;
25015;SDS011;13029;46.286;7.488;2023-01-29T12:22:05;26.75;;;17.15;;
25015;SDS011;13029;46.286;7.488;2023-01-29T12:27:59;24.45;;;16.55;;
25015;SDS011;13029;46.286;7.488;2023-01-29T12:30:27;25.85;;;16.83;;
25015;SDS011;13029;46.286;7.488;2023-01-29T12:36:46;24.70;;;16.70;;
25015;SDS011;13029;46.286;7.488;2023-01-29T12:38:55;21.95;;;14.68;;
25015;SDS011;13029;46.286;7.488;2023-01-29T12:44:15;25.65;;;17.25;;
25015;SDS011;13029;46.286;7.488;2023-01-29T12:46:45;27.40;;;16.80;;
25015;SDS011;13029;46.286;7.488;2023-01-29T12:49:15;27.23;;;16.85;;
25015;SDS011;13029;46.286;7.488;2023-01-29T12:52:45;25.75;;;17.23;;
25015;SDS011;13029;46.286;7.488;2023-01-29T12:54:59;22.90;;;16.45;;
25015;SDS011;13029;46.286;7.488;2023-01-29T12:57:46;22.92;;;15.75;;
25015;SDS011;13029;46.286;7.488;2023-01-29T13:00:28;21.95;;;15.95;;
25015;SDS011;13029;46.286;7.488;2023-01-29T13:05:28;23.00;;;16.25;;
25015;SDS011;13029;46.286;7.488;2023-01-29T13:10:40;22.98;;;16.23;;
25015;SDS011;13029;46.286;7.488;2023-01-29T13:15:55;22.65;;;16.20;;
25015;SDS011;13029;46.286;7.488;2023-01-29T13:18:29;20.58;;;15.95;;
25015;SDS011;13029;46.286;7.488;2023-01-29T13:21:07;26.63;;;18.13;;
25015;SDS011;13029;46.286;7.488;2023-01-29T13:23:38;25.17;;;17.05;;
25015;SDS011;13029;46.286;7.488;2023-01-29T13:26:06;23.88;;;16.67;;
25015;SDS011;13029;46.286;7.488;2023-01-29T13:28:32;23.60;;;16.48;;
25015;SDS011;13029;46.286;7.488;2023-01-29T13:31:10;24.02;;;16.48;;
25015;SDS011;13029;46.286;7.488;2023-01-29T13:33:36;20.80;;;16.48;;
25015;SDS011;13029;46.286;7.488;2023-01-29T13:36:02;26.90;;;17.63;;
25015;SDS011;13029;46.286;7.488;2023-01-29T13:38:28;22.25;;;15.93;;
25015;SDS011;13029;46.286;7.488;2023-01-29T13:40:58;24.38;;;17.30;;
25015;SDS011;13029;46.286;7.488;2023-01-29T13:43:25;24.83;;;17.40;;
25015;SDS011;13029;46.286;7.488;2023-01-29T13:45:51;24.60;;;16.55;;
25015;SDS011;13029;46.286;7.488;2023-01-29T13:48:23;25.30;;;18.15;;
25015;SDS011;13029;46.286;7.488;2023-01-29T13:50:52;22.73;;;16.45;;
25015;SDS011;13029;46.286;7.488;2023-01-29T13:53:20;23.17;;;16.83;;
25015;SDS011;13029;46.286;7.488;2023-01-29T13:55:47;23.20;;;16.88;;
25015;SDS011;13029;46.286;7.488;2023-01-29T13:58:14;24.33;;;17.25;;
25015;SDS011;13029;46.286;7.488;2023-01-29T14:13:43;25.83;;;18.25;;
25015;SDS011;13029;46.286;7.488;2023-01-29T14:21:32;26.05;;;17.35;;
25015;SDS011;13029;46.286;7.488;2023-01-29T14:24:21;25.50;;;16.58;;
25015;SDS011;13029;46.286;7.488;2023-01-29T14:26:52;24.65;;;16.90;;
25015;SDS011;13029;46.286;7.488;2023-01-29T14:29:21;27.48;;;18.50;;
25015;SDS011;13029;46.286;7.488;2023-01-29T14:31:57;23.45;;;17.73;;
25015;SDS011;13029;46.286;7.488;2023-01-29T14:34:30;26.38;;;18.55;;
25015;SDS011;13029;46.286;7.488;2023-01-29T14:37:31;28.20;;;18.20;;
25015;SDS011;13029;46.286;7.488;2023-01-29T14:42:44;29.95;;;18.85;;
25015;SDS011;13029;46.286;7.488;2023-01-29T14:47:51;27.63;;;16.90;;
25015;SDS011;13029;46.286;7.488;2023-01-29T14:52:42;27.60;;;18.00;;
25015;SDS011;13029;46.286;7.488;2023-01-29T14:57:49;32.35;;;18.17;;
25015;SDS011;13029;46.286;7.488;2023-01-29T15:00:23;30.65;;;17.70;;
25015;SDS011;13029;46.286;7.488;2023-01-29T15:02:51;27.85;;;18.45;;
25015;SDS011;13029;46.286;7.488;2023-01-29T15:05:18;28.35;;;16.95;;
25015;SDS011;13029;46.286;7.488;2023-01-29T15:07:56;29.35;;;18.05;;
25015;SDS011;13029;46.286;7.488;2023-01-29T15:10:37;28.10;;;17.80;;
25015;SDS011;13029;46.286;7.488;2023-01-29T15:13:13;29.02;;;17.70;;
25015;SDS011;13029;46.286;7.488;2023-01-29T15:15:55;29.17;;;17.15;;
25015;SDS011;13029;46.286;7.488;2023-01-29T15:18:29;32.28;;;18.35;;
25015;SDS011;13029;46.286;7.488;2023-01-29T15:21:04;33.38;;;18.27;;
25015;SDS011;13029;46.286;7.488;2023-01-29T15:23:35;29.55;;;17.75;;
25015;SDS011;13029;46.286;7.488;2023-01-29T15:26:02;31.77;;;18.25;;
25015;SDS011;13029;46.286;7.488;2023-01-29T15:28:31;29.40;;;17.77;;
25015;SDS011;13029;46.286;7.488;2023-01-29T15:31:01;29.27;;;18.10;;
25015;SDS011;13029;46.286;7.488;2023-01-29T15:33:28;28.65;;;17.33;;
25015;SDS011;13029;46.286;7.488;2023-01-29T15:36:02;28.80;;;16.88;;
25015;SDS011;13029;46.286;7.488;2023-01-29T15:38:28;28.38;;;16.95;;
25015;SDS011;13029;46.286;7.488;2023-01-29T15:40:55;30.63;;;18.58;;
25015;SDS011;13029;46.286;7.488;2023-01-29T15:43:23;33.30;;;17.92;;
25015;SDS011;13029;46.286;7.488;2023-01-29T15:46:33;31.63;;;18.02;;
25015;SDS011;13029;46.286;7.488;2023-01-29T15:48:52;29.20;;;17.63;;
25015;SDS011;13029;46.286;7.488;2023-01-29T15:51:22;31.88;;;18.25;;
25015;SDS011;13029;46.286;7.488;2023-01-29T15:56:20;34.20;;;18.33;;
25015;SDS011;13029;46.286;7.488;2023-01-29T15:58:48;31.98;;;19.77;;
25015;SDS011;13029;46.286;7.488;2023-01-29T16:01:15;33.22;;;17.75;;
25015;SDS011;13029;46.286;7.488;2023-01-29T16:03:40;30.63;;;17.52;;
25015;SDS011;13029;46.286;7.488;2023-01-29T16:06:06;31.73;;;18.88;;
25015;SDS011;13029;46.286;7.488;2023-01-29T16:08:32;35.08;;;19.20;;
25015;SDS011;13029;46.286;7.488;2023-01-29T16:10:59;33.28;;;19.55;;
25015;SDS011;13029;46.286;7.488;2023-01-29T16:13:26;31.52;;;18.58;;
25015;SDS011;13029;46.286;7.488;2023-01-29T16:15:57;33.42;;;18.40;;
25015;SDS011;13029;46.286;7.488;2023-01-29T16:18:34;32.78;;;18.00;;
25015;SDS011;13029;46.286;7.488;2023-01-29T16:21:04;30.52;;;16.42;;
25015;SDS011;13029;46.286;7.488;2023-01-29T16:23:39;31.58;;;17.05;;
25015;SDS011;13029;46.286;7.488;2023-01-29T16:26:07;27.77;;;15.40;;
25015;SDS011;13029;46.286;7.488;2023-01-29T16:28:40;30.35;;;16.85;;
25015;SDS011;13029;46.286;7.488;2023-01-29T16:31:06;30.75;;;17.58;;
25015;SDS011;13029;46.286;7.488;2023-01-29T16:33:32;26.25;;;16.17;;
25015;SDS011;13029;46.286;7.488;2023-01-29T16:35:59;30.10;;;16.52;;
25015;SDS011;13029;46.286;7.488;2023-01-29T16:38:29;29.60;;;16.50;;
25015;SDS011;13029;46.286;7.488;2023-01-29T16:41:05;29.92;;;16.52;;
25015;SDS011;13029;46.286;7.488;2023-01-29T16:46:04;29.33;;;17.48;;
25015;SDS011;13029;46.286;7.488;2023-01-29T16:48:43;34.78;;;16.85;;
25015;SDS011;13029;46.286;7.488;2023-01-29T16:51:12;39.85;;;17.75;;
25015;SDS011;13029;46.286;7.488;2023-01-29T16:53:39;39.70;;;18.98;;
25015;SDS011;13029;46.286;7.488;2023-01-29T16:56:19;33.67;;;18.05;;
25015;SDS011;13029;46.286;7.488;2023-01-29T16:58:49;33.55;;;17.25;;
25015;SDS011;13029;46.286;7.488;2023-01-29T17:01:15;31.02;;;16.90;;
25015;SDS011;13029;46.286;7.488;2023-01-29T17:03:41;30.70;;;17.35;;